Flag for USA

Past Weather in Neenah, Wisconsin, USA — Yesterday and Last 2 Weeks

Currently: 37 °F. Clear. (Weather station: Appleton / Outagamie, USA). See more current weather

Past Weather in Neenah — Graph

°F

Neenah Temperature Yesterday

Maximum temperature yesterday: 48 °F (at 2:45 pm)
Minimum temperature yesterday: 30 °F (at 5:45 am)
Average temperature yesterday: 37 °F

High & Low Weather Summary for the Past Weeks

 TemperatureHumidityPressure
High61 °F (Oct 14, 3:45 pm)100% (Oct 20, 9:45 pm)30.33 "Hg (Oct 20, 9:45 pm)
Low21 °F (Oct 19, 6:45 am)23% (Oct 18, 2:45 pm)29.41 "Hg (Oct 14, 7:45 pm)
Average37 °F63%30.06 "Hg
* Reported Oct 13 11:15 pm — Oct 28 11:35 pm, Neenah. Weather by CustomWeather, © 2020

Note: Actual official high and low records may vary slightly from our data, if they occured in-between our weather recording intervals... More about our weather records

Neenah Weather History for the Previous 24 Hours

Scroll right to see more
 ConditionsComfort  
Time TempWeatherWind HumidityBarometerVisibility
11:35 pm
Wed, Oct 28
37 °FClear.12 mph56%29.92 "Hg10 mi
11:15 pm39 °FClear.13 mph52%29.92 "Hg10 mi
10:55 pm39 °FClear.9 mph52%29.92 "Hg10 mi
10:45 pm39 °FPassing clouds.9 mph52%29.92 "Hg10 mi
9:45 pm37 °FPassing clouds.10 mph56%29.89 "Hg10 mi
8:45 pm41 °FPassing clouds.6 mph49%29.88 "Hg10 mi
7:45 pm43 °FPassing clouds.6 mph49%29.89 "Hg10 mi
6:45 pm46 °FPassing clouds.7 mph40%29.87 "Hg10 mi
5:45 pm46 °FPartly sunny.7 mph46%29.86 "Hg10 mi
4:45 pm48 °FPartly sunny.9 mph40%29.86 "Hg10 mi
3:45 pm48 °FPartly sunny.10 mph37%29.88 "Hg10 mi
2:45 pm48 °FPartly sunny.8 mph32%29.87 "Hg10 mi
1:45 pm46 °FScattered clouds.8 mph34%29.88 "Hg10 mi
12:45 pm45 °FScattered clouds.8 mph34%29.87 "Hg10 mi
11:45 am41 °FScattered clouds.8 mph36%29.90 "Hg10 mi
10:45 am39 °FScattered clouds.12 mph39%29.91 "Hg10 mi
9:45 am36 °FSunny.12 mph44%29.92 "Hg10 mi
8:45 am32 °FPassing clouds.13 mph51%29.93 "Hg10 mi
5:45 am30 °FPassing clouds.17 mph51%29.92 "Hg10 mi
5:15 am32 °FPassing clouds.17 mph47%29.92 "Hg10 mi
4:55 am32 °FOvercast.20 mph47%29.92 "Hg10 mi
4:35 am32 °FOvercast.17 mph47%29.91 "Hg10 mi
4:15 am32 °FPassing clouds.16 mph44%29.91 "Hg10 mi
3:55 am32 °FPassing clouds.17 mph44%29.92 "Hg10 mi
3:35 am32 °FPassing clouds.15 mph44%29.92 "Hg10 mi
3:15 am32 °FOvercast.17 mph44%29.92 "Hg10 mi
2:55 am32 °FOvercast.18 mph40%29.94 "Hg10 mi
2:35 am32 °FOvercast.20 mph40%29.95 "Hg10 mi
2:15 am32 °FOvercast.17 mph40%29.95 "Hg10 mi
1:55 am32 °FOvercast.16 mph40%29.96 "Hg10 mi
1:35 am32 °FOvercast.18 mph40%29.96 "Hg10 mi
1:15 am32 °FPassing clouds.17 mph40%29.96 "Hg10 mi
12:55 am32 °FPassing clouds.16 mph40%29.98 "Hg10 mi
12:35 am32 °FPassing clouds.13 mph40%29.99 "Hg10 mi
Weather by CustomWeather, © 2020

See weather overview